Aérodrome :
LOGIN :

S'inscrire | Disclaimer

   EN    FR    IT 

 










Légende :    VFR   VFR Marginal   IFR   IFR Intensif   IFR Très Intensif
Visi : 
Plafond : 
>= 8 km
>= 3000ft
5 à 8 km
1000 à 3000 ft
1500m à 5 km
500 à 1000 ft
800 à 1500m
200 à 500 ft
< 800m
< 200 ft
Symboles :   Orages  Brouillard  Fortes neiges  Fortes précipitations  Vent > 20 kt
SIGMETs :   Divers  Orages  Givrage  Turbulence  Onde Orograph.  Cendres Volcan.







- Altitude de l'aérodrome : 74 ft
- Code IATA : MRS
- Voir les cartes d'approche


LFML - Marseille / Marignane

DERNIER METAR :
  • 122230Z AUTO 08009KT 9999 OVC050 18/13 Q1024 TEMPO BKN014

METARs EXPIRÉS :
  • 122200Z AUTO 08006KT 9999 OVC049 18/13 Q1024 TEMPO BKN014
  • 122130Z AUTO 09008KT 9999 OVC050 18/12 Q1024 TEMPO BKN014
  • 122100Z AUTO 10008KT 9999 FEW009 OVC050 19/12 Q1024 TEMPO BKN014
  • 122030Z AUTO 11010KT 9999 BKN046 OVC052 19/12 Q1024 TEMPO BKN014
  • 122000Z AUTO 11010KT 9999 FEW012 SCT038 OVC046 19/12 Q1024 NOSIG

TAF TAF LFML
Valide du 12 à 21h jusqu'au 14 à 03h UTC


122000Z 1221/1403 12010KT CAVOK TX21/1312Z TN15/1304Z
TEMPO 1221/1306 VRB03KT BKN014
BECMG 1306/1309 VRB03KT
ATIS : +33 4 42 31 15 15
Pas de NOTAMs connus pour ce terrain.



MET'MAP, la Météo Aéronautique d'un coup d'oeil ! - Copyright ORBIFLY Décembre 2007 - Disclaimer

ORBIFLY MET'MAP TEAM :

Programmation & Développement : Alexandra Zaïnal
Conception & Développement : Baudouin d'Aumeries
Co-Programmation & Développement : Marc-Olivier Méhu
Soutien technique & logistique : Manuel Goepfert

Contact : metmap@orbifly.com




SOURCES & CREDITS :

   NOAA